Time;durP1;ratioP1;P1;durP2;ratioP2;P2;SDS_P1;SDS_P2;PMS_P1;PMS_P2;Temp;Humidity;BMP_temperature;BMP_pressure;BME280_temperature;BME280_humidity;BME280_pressure;Samples;Min_cycle;Max_cycle;Signal;HPM_P1;HPM_P2
2023/08/23 00:00:49;;;;;;;4.43;1.80;;;15.70;99.90;;;;;;5031715;28;20128;-52
2023/08/23 00:03:15;;;;;;;4.55;1.40;;;12.40;99.90;;;;;;5031748;28;20029;-51
2023/08/23 00:05:43;;;;;;;3.63;1.50;;;16.50;99.90;;;;;;5031688;28;20036;-57
2023/08/23 00:08:08;;;;;;;4.65;1.60;;;17.00;99.90;;;;;;5033737;28;20061;-49
2023/08/23 00:10:34;;;;;;;2.65;1.88;;;18.20;99.90;;;;;;5043449;28;20485;-45
2023/08/23 00:13:00;;;;;;;4.55;1.65;;;12.00;99.90;;;;;;5031309;28;20455;-49
2023/08/23 00:15:25;;;;;;;6.15;1.55;;;17.10;99.90;;;;;;5031748;28;20184;-51
2023/08/23 00:17:51;;;;;;;3.33;1.65;;;16.30;99.90;;;;;;5031474;28;20477;-58
2023/08/23 00:20:16;;;;;;;2.47;1.40;;;16.90;99.90;;;;;;5031240;28;20025;-54
2023/08/23 00:22:42;;;;;;;5.45;1.95;;;17.90;99.90;;;;;;5030986;28;20026;-57
2023/08/23 00:25:08;;;;;;;4.80;1.67;;;15.50;99.90;;;;;;5031132;28;20025;-49
2023/08/23 00:27:34;;;;;;;4.10;1.80;;;17.30;99.90;;;;;;5031179;28;20079;-43
2023/08/23 00:30:00;;;;;;;3.88;1.80;;;;;;;;;;5031166;28;20084;-56
2023/08/23 00:32:26;;;;;;;5.07;1.90;;;;;;;;;;5031119;28;20408;-51
2023/08/23 00:34:51;;;;;;;4.85;1.50;;;15.90;99.90;;;;;;5030970;28;20030;-60
2023/08/23 00:37:17;;;;;;;4.07;1.73;;;15.30;99.90;;;;;;5030866;28;20499;-57
2023/08/23 00:39:43;;;;;;;2.83;1.65;;;11.20;99.90;;;;;;5031223;28;20029;-49
2023/08/23 00:42:10;;;;;;;3.72;1.45;;;;;;;;;;5030977;28;20056;-46
2023/08/23 00:44:35;;;;;;;4.20;1.60;;;16.60;99.90;;;;;;5031183;28;20484;-54
2023/08/23 00:47:01;;;;;;;4.18;1.83;;;16.00;99.90;;;;;;5030904;28;20035;-47
2023/08/23 00:49:33;;;;;;;3.28;1.73;;;16.90;99.90;;;;;;5031029;28;20032;-55
2023/08/23 00:52:00;;;;;;;3.90;1.60;;;15.90;99.90;;;;;;5031516;28;20037;-47
2023/08/23 00:54:26;;;;;;;2.22;1.25;;;;;;;;;;5032637;28;20025;-46
2023/08/23 00:56:53;;;;;;;3.05;1.67;;;15.80;99.90;;;;;;5031027;28;20032;-54
2023/08/23 00:59:18;;;;;;;3.17;1.52;;;16.70;99.90;;;;;;5030728;28;20071;-50
2023/08/23 01:01:44;;;;;;;3.08;1.17;;;12.60;99.90;;;;;;5030555;28;20029;-51
2023/08/23 01:04:10;;;;;;;3.28;1.42;;;;;;;;;;5030501;28;20048;-48
2023/08/23 01:06:46;;;;;;;3.97;1.38;;;14.90;99.90;;;;;;5030137;28;20018;-48
2023/08/23 01:09:27;;;;;;;7.30;2.22;;;15.80;99.90;;;;;;5028442;28;20079;-51
2023/08/23 01:12:03;;;;;;;3.53;1.52;;;11.60;99.90;;;;;;5030345;28;20059;-46
2023/08/23 01:14:29;;;;;;;3.33;1.20;;;;;;;;;;5030563;28;20480;-49
2023/08/23 01:16:57;;;;;;;3.90;1.30;;;16.00;99.90;;;;;;5030670;28;20022;-53
2023/08/23 01:19:22;;;;;;;1.88;1.00;;;15.50;99.90;;;;;;5030635;28;20090;-53
2023/08/23 01:21:52;;;;;;;2.90;1.13;;;15.90;99.90;;;;;;5030606;28;20140;-51
2023/08/23 01:24:18;;;;;;;4.10;1.50;;;15.30;99.90;;;;;;5030109;28;20022;-49
2023/08/23 01:26:43;;;;;;;2.00;1.27;;;16.30;99.90;;;;;;5030273;28;20038;-53
2023/08/23 01:29:09;;;;;;;3.33;1.60;;;16.00;99.90;;;;;;5030388;28;20018;-55
2023/08/23 01:31:40;;;;;;;2.25;1.33;;;17.10;99.90;;;;;;5030131;28;20038;-54
2023/08/23 01:34:25;;;;;;;2.53;1.17;;;14.70;99.90;;;;;;5031692;28;20029;-49
2023/08/23 01:36:53;;;;;;;2.63;1.20;;;16.10;99.90;;;;;;5033837;28;20045;-49
2023/08/23 01:39:22;;;;;;;2.70;1.42;;;12.00;99.90;;;;;;5034155;28;20021;-52
2023/08/23 01:41:49;;;;;;;3.42;1.42;;;11.40;99.90;;;;;;5034508;28;20034;-50
2023/08/23 01:44:15;;;;;;;2.50;1.52;;;16.10;99.90;;;;;;5032872;28;20408;-49
2023/08/23 01:46:41;;;;;;;1.45;1.10;;;;;;;;;;5034352;28;20017;-52
2023/08/23 01:49:07;;;;;;;3.03;1.40;;;;;;;;;;5034327;28;20627;-51
2023/08/23 01:51:33;;;;;;;3.90;1.15;;;11.80;99.90;;;;;;5034107;28;20033;-55
2023/08/23 01:53:58;;;;;;;3.05;1.30;;;15.80;99.90;;;;;;5034129;28;20034;-48
2023/08/23 01:56:24;;;;;;;2.30;1.42;;;;;;;;;;5034110;28;20372;-53
2023/08/23 01:58:50;;;;;;;2.80;1.50;;;17.00;99.90;;;;;;5034022;28;20507;-48
2023/08/23 02:01:15;;;;;;;2.78;1.38;;;15.80;99.90;;;;;;5034072;28;20052;-54
2023/08/23 02:03:41;;;;;;;1.90;1.40;;;16.20;99.90;;;;;;5033880;28;20084;-49
2023/08/23 02:06:07;;;;;;;3.55;1.85;;;13.90;99.90;;;;;;5033990;28;20028;-49
2023/08/23 02:08:32;;;;;;;4.32;1.70;;;15.70;99.90;;;;;;5032395;28;20029;-54
2023/08/23 02:10:58;;;;;;;3.42;1.77;;;17.30;99.90;;;;;;5033911;28;20246;-51
2023/08/23 02:13:23;;;;;;;4.25;1.73;;;17.20;99.90;;;;;;5032909;28;20151;-45
2023/08/23 02:15:49;;;;;;;6.45;2.45;;;16.70;99.90;;;;;;5033717;28;20542;-51
2023/08/23 02:18:14;;;;;;;3.35;1.50;;;16.30;99.90;;;;;;5033611;28;20061;-49
2023/08/23 02:20:40;;;;;;;2.95;1.50;;;15.70;99.90;;;;;;5033661;28;20025;-47
2023/08/23 02:23:06;;;;;;;5.15;1.90;;;;;;;;;;5033656;28;20038;-56
2023/08/23 02:25:32;;;;;;;3.83;1.60;;;;;;;;;;5033678;28;20034;-51
2023/08/23 02:27:57;;;;;;;3.83;2.00;;;14.60;99.90;;;;;;5033412;28;20049;-46
2023/08/23 02:30:23;;;;;;;4.57;2.05;;;15.10;99.90;;;;;;5033413;28;20080;-55
2023/08/23 02:32:49;;;;;;;4.65;2.17;;;16.20;99.90;;;;;;5033414;28;20493;-46
2023/08/23 02:35:14;;;;;;;3.15;2.10;;;12.20;99.90;;;;;;5033284;28;20098;-56
2023/08/23 02:37:40;;;;;;;5.07;1.75;;;15.30;99.90;;;;;;5033993;28;20071;-51
2023/08/23 02:40:06;;;;;;;3.47;1.90;;;15.10;99.90;;;;;;5033213;28;20029;-50
2023/08/23 02:42:32;;;;;;;2.63;1.67;;;12.00;99.90;;;;;;5033139;28;20075;-53
2023/08/23 02:44:58;;;;;;;3.58;2.22;;;15.40;99.90;;;;;;5032607;28;20104;-50
2023/08/23 02:47:23;;;;;;;3.15;1.65;;;16.40;99.90;;;;;;5033051;28;20050;-51
2023/08/23 02:49:49;;;;;;;6.38;1.83;;;17.30;99.90;;;;;;5033074;28;20055;-52
2023/08/23 02:52:14;;;;;;;3.72;1.60;;;16.50;99.90;;;;;;5032787;28;20026;-49
2023/08/23 02:54:40;;;;;;;3.40;1.90;;;;;;;;;;5032987;28;20029;-46
2023/08/23 02:57:06;;;;;;;4.32;2.03;;;;;;;;;;5032379;28;20045;-50
2023/08/23 02:59:32;;;;;;;3.33;1.58;;;12.10;99.90;;;;;;5032720;28;20480;-46
2023/08/23 03:01:58;;;;;;;3.63;1.65;;;;;;;;;;5032831;28;20112;-48
2023/08/23 03:04:23;;;;;;;3.35;1.75;;;15.70;99.90;;;;;;5032585;28;20087;-52
2023/08/23 03:06:49;;;;;;;3.38;1.77;;;16.70;99.90;;;;;;5032687;28;20025;-58
2023/08/23 03:09:15;;;;;;;3.72;1.67;;;;;;;;;;5032376;28;20437;-47
2023/08/23 03:11:41;;;;;;;2.85;1.75;;;14.90;99.90;;;;;;5032401;28;20041;-54
2023/08/23 03:14:06;;;;;;;2.15;1.35;;;16.90;99.90;;;;;;5032674;28;20044;-51
2023/08/23 03:16:33;;;;;;;2.17;1.30;;;17.30;99.90;;;;;;5032367;28;20082;-51
2023/08/23 03:18:59;;;;;;;4.22;1.67;;;;;;;;;;5032668;28;20057;-53
2023/08/23 03:21:24;;;;;;;3.85;1.67;;;16.20;99.90;;;;;;5032552;28;20045;-51
2023/08/23 03:23:50;;;;;;;4.50;1.67;;;15.10;99.90;;;;;;5032329;28;20029;-56
2023/08/23 03:26:15;;;;;;;3.55;1.65;;;17.40;99.90;;;;;;5032588;28;20025;-56
2023/08/23 03:28:41;;;;;;;3.05;1.35;;;15.80;99.90;;;;;;5032366;28;20092;-53
2023/08/23 03:31:06;;;;;;;2.20;1.27;;;15.40;99.90;;;;;;5032335;28;20109;-53
2023/08/23 03:33:32;;;;;;;2.08;1.25;;;15.30;99.90;;;;;;5032369;28;20030;-44
2023/08/23 03:35:58;;;;;;;8.45;1.85;;;16.10;99.90;;;;;;5032835;28;20075;-50
2023/08/23 03:38:24;;;;;;;3.70;1.55;;;;;;;;;;5031963;28;20500;-58
2023/08/23 03:40:53;;;;;;;4.70;1.55;;;15.60;99.90;;;;;;5031972;28;20108;-48
2023/08/23 03:43:19;;;;;;;2.65;1.65;;;;;;;;;;5032265;28;20029;-54
2023/08/23 03:45:49;;;;;;;3.65;1.70;;;14.20;99.90;;;;;;5032113;28;20052;-56
2023/08/23 03:48:16;;;;;;;5.93;1.63;;;12.90;99.90;;;;;;5031932;28;20034;-46
2023/08/23 03:50:42;;;;;;;3.65;1.52;;;15.90;99.90;;;;;;5031710;28;20056;-53
2023/08/23 03:53:08;;;;;;;2.65;1.70;;;16.00;99.90;;;;;;5031799;28;20365;-54
2023/08/23 03:55:35;;;;;;;3.70;1.73;;;15.10;99.90;;;;;;5031979;28;20032;-49
2023/08/23 03:58:01;;;;;;;8.57;1.77;;;17.30;99.90;;;;;;5031093;28;20465;-47
2023/08/23 04:00:26;;;;;;;4.25;2.10;;;15.70;99.90;;;;;;5031618;28;20117;-44
2023/08/23 04:02:52;;;;;;;9.98;2.15;;;16.50;99.90;;;;;;5031455;28;20041;-52
2023/08/23 04:05:17;;;;;;;4.65;1.98;;;15.20;99.90;;;;;;5031489;28;20025;-46
2023/08/23 04:07:43;;;;;;;3.67;1.85;;;16.50;99.90;;;;;;5031471;28;20115;-48
2023/08/23 04:10:09;;;;;;;4.15;1.80;;;16.30;99.90;;;;;;5030170;28;20032;-48
2023/08/23 04:12:35;;;;;;;5.65;2.33;;;;;;;;;;5031214;28;20053;-52
2023/08/23 04:15:01;;;;;;;4.93;2.05;;;15.30;99.90;;;;;;5031211;28;20431;-53
2023/08/23 04:17:26;;;;;;;3.65;1.90;;;15.20;99.90;;;;;;5031731;28;20108;-52
2023/08/23 04:19:52;;;;;;;5.90;2.35;;;15.40;99.90;;;;;;5031465;28;20033;-51
2023/08/23 04:22:17;;;;;;;3.25;1.98;;;12.30;99.90;;;;;;5031209;28;20048;-50
2023/08/23 04:24:43;;;;;;;8.93;2.63;;;17.50;99.90;;;;;;5031501;28;20030;-51
2023/08/23 04:27:09;;;;;;;6.15;2.15;;;16.40;99.90;;;;;;5031086;28;20022;-50
2023/08/23 04:29:35;;;;;;;5.85;2.28;;;;;;;;;;5031380;28;20518;-54
2023/08/23 04:32:00;;;;;;;3.50;1.95;;;15.90;99.90;;;;;;5031148;28;20029;-54
2023/08/23 04:34:26;;;;;;;4.30;2.30;;;16.10;99.90;;;;;;5031286;28;20038;-56
2023/08/23 04:36:52;;;;;;;4.88;2.40;;;12.10;99.90;;;;;;5031235;28;20032;-47
2023/08/23 04:39:17;;;;;;;7.68;2.88;;;16.50;99.90;;;;;;5029885;28;20026;-51
2023/08/23 04:41:43;;;;;;;3.67;2.13;;;17.50;99.90;;;;;;5031103;28;20025;-53
2023/08/23 04:44:08;;;;;;;7.10;2.17;;;15.70;99.90;;;;;;5031001;28;20086;-56
2023/08/23 04:46:34;;;;;;;5.03;2.15;;;16.40;99.90;;;;;;5031017;28;20049;-50
2023/08/23 04:48:59;;;;;;;4.88;2.25;;;16.90;99.90;;;;;;5030792;28;20021;-55
2023/08/23 04:51:25;;;;;;;5.72;2.10;;;16.10;99.90;;;;;;5030959;28;20021;-47
2023/08/23 04:53:51;;;;;;;4.03;1.50;;;;;;;;;;5031017;28;20038;-48
2023/08/23 04:56:16;;;;;;;6.00;1.75;;;15.00;99.90;;;;;;5030803;28;20021;-53
2023/08/23 04:58:42;;;;;;;2.83;1.20;;;13.10;99.90;;;;;;5030883;28;20029;-51
2023/08/23 05:01:08;;;;;;;2.97;1.50;;;14.90;99.90;;;;;;5030517;28;20404;-51
2023/08/23 05:03:35;;;;;;;2.97;1.50;;;15.40;99.90;;;;;;5030604;28;20032;-50
2023/08/23 05:06:02;;;;;;;4.20;1.60;;;14.90;99.90;;;;;;5030548;28;20507;-47
2023/08/23 05:08:28;;;;;;;2.53;1.40;;;15.30;99.90;;;;;;5030492;28;20499;-47
2023/08/23 05:10:55;;;;;;;4.82;1.75;;;14.80;99.90;;;;;;5030607;28;20040;-52
2023/08/23 05:13:22;;;;;;;3.67;1.85;;;12.70;99.90;;;;;;5030234;28;20480;-54
2023/08/23 05:15:54;;;;;;;3.58;1.67;;;14.70;99.90;;;;;;5030537;28;20061;-49
2023/08/23 05:18:20;;;;;;;3.50;1.70;;;15.60;99.90;;;;;;5030447;28;20021;-56
2023/08/23 05:20:46;;;;;;;3.63;1.50;;;13.20;99.90;;;;;;5031490;28;20111;-45
2023/08/23 05:23:12;;;;;;;2.95;1.80;;;15.20;99.90;;;;;;5033005;28;20030;-51
2023/08/23 05:25:37;;;;;;;3.08;1.75;;;16.90;99.90;;;;;;5032691;28;20029;-44
2023/08/23 05:28:03;;;;;;;6.78;1.77;;;15.40;99.90;;;;;;5030079;28;20029;-45
2023/08/23 05:30:31;;;;;;;6.10;2.00;;;14.70;99.90;;;;;;5030673;28;20022;-49
2023/08/23 05:32:56;;;;;;;5.05;2.45;;;14.00;99.90;;;;;;5030442;28;20067;-47
2023/08/23 05:35:22;;;;;;;4.45;2.22;;;13.50;99.90;;;;;;5030302;28;20104;-54
2023/08/23 05:37:48;;;;;;;4.13;2.10;;;15.00;99.90;;;;;;5030323;28;20025;-54
2023/08/23 05:40:13;;;;;;;2.95;1.70;;;14.70;99.90;;;;;;5030120;28;20397;-50
2023/08/23 05:42:39;;;;;;;2.75;1.67;;;15.40;99.90;;;;;;5029849;28;20021;-54
2023/08/23 05:45:05;;;;;;;5.03;1.88;;;16.50;99.90;;;;;;5028703;28;20048;-57
2023/08/23 05:47:30;;;;;;;3.38;1.80;;;15.10;99.90;;;;;;5029867;28;20029;-52
2023/08/23 05:49:56;;;;;;;3.10;1.95;;;14.70;99.90;;;;;;5030147;28;20068;-49
2023/08/23 05:52:22;;;;;;;3.95;1.67;;;14.70;99.90;;;;;;5028903;28;20064;-53
2023/08/23 05:54:47;;;;;;;3.03;1.88;;;15.50;99.90;;;;;;5030265;28;20040;-56
2023/08/23 05:57:13;;;;;;;4.65;1.45;;;15.80;99.90;;;;;;5030098;28;20018;-55
2023/08/23 05:59:38;;;;;;;3.78;1.42;;;15.40;99.90;;;;;;5028842;28;20035;-55
2023/08/23 06:02:05;;;;;;;2.47;1.63;;;12.60;99.90;;;;;;5029226;28;20053;-52
2023/08/23 06:04:31;;;;;;;2.42;1.50;;;14.80;99.90;;;;;;5029759;28;20040;-55
2023/08/23 06:06:57;;;;;;;3.22;1.63;;;12.60;99.90;;;;;;5029926;28;20029;-49
2023/08/23 06:09:23;;;;;;;3.40;1.60;;;;;;;;;;5030132;28;20028;-45
2023/08/23 06:11:49;;;;;;;4.55;1.67;;;;;;;;;;5029776;28;20455;-52
2023/08/23 06:14:19;;;;;;;2.45;1.40;;;15.00;99.90;;;;;;5028631;28;20032;-51
2023/08/23 06:16:45;;;;;;;4.82;1.92;;;15.70;99.90;;;;;;5029789;28;20465;-45
2023/08/23 06:19:11;;;;;;;4.15;1.80;;;13.40;99.90;;;;;;5029780;28;20025;-47
2023/08/23 06:21:38;;;;;;;3.22;2.00;;;15.70;99.90;;;;;;5033761;28;20037;-44
2023/08/23 06:24:03;;;;;;;4.40;2.03;;;15.70;99.90;;;;;;5033853;28;20013;-54
2023/08/23 06:26:29;;;;;;;5.28;2.00;;;15.70;99.90;;;;;;5033637;28;20395;-50
2023/08/23 06:28:55;;;;;;;5.40;1.73;;;;;;;;;;5033536;28;20021;-47
2023/08/23 06:31:21;;;;;;;3.38;1.92;;;;;;;;;;5033378;28;20040;-48
2023/08/23 06:33:47;;;;;;;4.10;2.03;;;13.60;99.90;;;;;;5033035;28;20562;-52
2023/08/23 06:36:13;;;;;;;3.53;1.70;;;18.00;99.90;;;;;;5033004;28;20101;-51
2023/08/23 06:38:41;;;;;;;3.72;2.17;;;17.90;99.90;;;;;;5031797;28;20116;-47
2023/08/23 06:41:06;;;;;;;4.32;2.80;;;18.30;99.90;;;;;;5033140;28;20040;-52
2023/08/23 06:43:32;;;;;;;4.18;2.22;;;18.60;99.90;;;;;;5033049;28;20116;-53
2023/08/23 06:45:58;;;;;;;5.10;2.15;;;18.80;99.90;;;;;;5032993;28;20067;-51
2023/08/23 06:48:23;;;;;;;4.10;1.70;;;19.40;99.90;;;;;;5033330;28;20116;-49
2023/08/23 06:50:49;;;;;;;3.58;2.00;;;20.50;99.90;;;;;;5032903;28;20056;-55
2023/08/23 06:53:15;;;;;;;3.13;1.83;;;;;;;;;;5032725;28;20056;-51
2023/08/23 06:55:41;;;;;;;5.80;1.65;;;20.80;99.90;;;;;;5031554;28;20026;-50
2023/08/23 06:58:07;;;;;;;5.30;1.67;;;20.60;99.90;;;;;;5032428;28;20034;-48
2023/08/23 07:00:34;;;;;;;3.05;1.58;;;22.20;99.90;;;;;;5032616;28;20021;-53
2023/08/23 07:03:01;;;;;;;4.28;1.48;;;22.10;99.90;;;;;;5032399;28;20034;-56
2023/08/23 07:05:26;;;;;;;2.67;1.42;;;23.00;99.90;;;;;;5032590;28;20084;-49
2023/08/23 07:07:52;;;;;;;3.47;1.50;;;23.80;99.90;;;;;;5032448;28;20420;-54
2023/08/23 07:10:18;;;;;;;5.80;1.67;;;23.80;99.90;;;;;;5032745;28;20041;-51
2023/08/23 07:12:44;;;;;;;3.35;1.42;;;24.10;99.90;;;;;;5032405;28;20520;-53
2023/08/23 07:15:10;;;;;;;2.17;1.20;;;22.20;99.90;;;;;;5032746;28;20029;-51
2023/08/23 07:17:36;;;;;;;2.30;1.30;;;25.10;99.90;;;;;;5033069;28;20769;-57
2023/08/23 07:20:03;;;;;;;3.88;1.38;;;26.90;99.90;;;;;;5032596;28;20027;-51
2023/08/23 07:22:29;;;;;;;1.95;1.10;;;;;;;;;;5032504;28;20096;-54
2023/08/23 07:24:55;;;;;;;2.05;1.23;;;23.80;99.90;;;;;;5032704;28;20025;-57
2023/08/23 07:27:21;;;;;;;1.67;1.10;;;26.10;99.90;;;;;;5031905;28;20388;-53
2023/08/23 07:29:46;;;;;;;3.20;1.00;;;26.30;99.90;;;;;;5032721;28;20052;-52
2023/08/23 07:32:12;;;;;;;2.00;1.08;;;26.50;99.90;;;;;;5031935;28;20079;-54
2023/08/23 07:34:37;;;;;;;2.88;1.13;;;26.30;99.90;;;;;;5030964;28;20055;-58
2023/08/23 07:37:03;;;;;;;3.10;1.20;;;26.50;99.90;;;;;;5032106;28;20028;-52
2023/08/23 07:39:29;;;;;;;4.80;1.17;;;27.50;99.90;;;;;;5032068;28;20017;-49
2023/08/23 07:41:55;;;;;;;1.25;0.80;;;26.80;99.90;;;;;;5030425;28;20026;-54
2023/08/23 07:44:20;;;;;;;2.47;0.98;;;28.30;99.90;;;;;;5031875;28;20029;-48
2023/08/23 07:46:46;;;;;;;1.92;0.93;;;26.80;99.90;;;;;;5031916;28;20480;-60
2023/08/23 07:49:14;;;;;;;3.13;1.02;;;27.20;99.90;;;;;;5031714;28;20100;-58
2023/08/23 07:51:40;;;;;;;1.95;0.90;;;27.60;99.90;;;;;;5031924;28;20022;-48
2023/08/23 07:54:06;;;;;;;5.93;1.20;;;27.30;99.90;;;;;;5031322;28;20239;-53
2023/08/23 07:56:31;;;;;;;1.98;0.90;;;26.70;99.90;;;;;;5031818;28;20059;-51
2023/08/23 07:58:57;;;;;;;1.98;0.95;;;26.30;99.90;;;;;;5023894;28;20067;-56
2023/08/23 08:01:23;;;;;;;2.58;1.10;;;;;;;;;;5030480;28;20032;-48
2023/08/23 08:03:51;;;;;;;4.10;1.08;;;24.80;99.90;;;;;;5029168;28;20079;-54
2023/08/23 08:06:17;;;;;;;2.00;1.08;;;27.00;99.90;;;;;;5031191;28;20104;-57
2023/08/23 08:08:43;;;;;;;4.75;1.08;;;27.00;99.90;;;;;;5031391;28;20087;-52
2023/08/23 08:11:11;;;;;;;2.55;1.10;;;26.90;99.90;;;;;;5031170;28;20030;-50
2023/08/23 08:13:37;;;;;;;1.88;1.20;;;28.20;99.90;;;;;;5031218;28;20407;-58
2023/08/23 08:16:10;;;;;;;1.83;0.95;;;28.50;99.90;;;;;;5031192;28;20025;-51
2023/08/23 08:18:35;;;;;;;2.88;1.00;;;29.20;99.90;;;;;;5031440;28;20125;-49
2023/08/23 08:21:01;;;;;;;2.60;1.00;;;29.70;99.90;;;;;;5031414;28;20492;-50
2023/08/23 08:23:28;;;;;;;2.67;0.80;;;28.10;99.90;;;;;;5031145;28;20032;-47
2023/08/23 08:25:54;;;;;;;1.55;0.80;;;26.10;99.90;;;;;;5031327;28;20469;-51
2023/08/23 08:28:20;;;;;;;1.40;0.70;;;29.10;99.90;;;;;;5031393;28;20039;-50
2023/08/23 08:30:46;;;;;;;1.55;0.85;;;26.20;99.90;;;;;;5030474;28;20025;-50
2023/08/23 08:33:12;;;;;;;2.58;1.27;;;27.10;99.90;;;;;;5030834;28;20364;-50
2023/08/23 08:35:38;;;;;;;1.80;1.00;;;24.30;99.90;;;;;;5030972;28;20013;-46
2023/08/23 08:38:03;;;;;;;2.40;0.85;;;24.20;99.90;;;;;;5031068;28;20122;-47
2023/08/23 08:40:30;;;;;;;1.52;0.68;;;;;;;;;;5030693;28;20138;-48
2023/08/23 08:42:56;;;;;;;4.20;1.23;;;26.80;99.90;;;;;;5030467;28;20091;-56
2023/08/23 08:45:21;;;;;;;6.25;1.10;;;28.00;99.90;;;;;;5030375;28;20484;-49
2023/08/23 08:47:47;;;;;;;2.70;1.05;;;28.40;99.90;;;;;;5030013;28;20025;-53
2023/08/23 08:50:13;;;;;;;2.25;1.13;;;27.70;99.90;;;;;;5028896;28;20044;-43
2023/08/23 08:52:51;;;;;;;4.47;1.65;;;27.70;99.90;;;;;;5027903;28;20049;-50
2023/08/23 08:55:19;;;;;;;3.50;0.80;;;26.30;99.90;;;;;;5027324;28;20392;-53
2023/08/23 08:57:47;;;;;;;1.85;0.80;;;29.10;99.90;;;;;;5026358;28;20670;-52
2023/08/23 09:00:13;;;;;;;1.23;0.60;;;28.60;99.40;;;;;;5025999;28;20018;-53
2023/08/23 09:02:41;;;;;;;3.83;0.90;;;28.70;99.90;;;;;;5027377;28;20037;-54
2023/08/23 09:05:07;;;;;;;1.13;0.80;;;28.60;99.00;;;;;;5027986;28;20024;-51
2023/08/23 09:07:33;;;;;;;1.48;0.70;;;29.10;99.60;;;;;;5027006;28;20447;-58
2023/08/23 09:09:59;;;;;;;1.98;0.80;;;;;;;;;;5028524;28;20033;-51
2023/08/23 09:12:25;;;;;;;1.15;0.73;;;29.40;97.80;;;;;;5028593;28;20042;-52
2023/08/23 09:14:50;;;;;;;2.30;0.90;;;30.30;99.70;;;;;;5029935;28;20017;-55
2023/08/23 09:17:21;;;;;;;1.77;0.80;;;31.10;99.10;;;;;;5030391;28;20075;-57
2023/08/23 09:19:47;;;;;;;1.30;0.70;;;30.00;98.40;;;;;;5030659;28;20416;-54
2023/08/23 09:22:19;;;;;;;1.88;0.70;;;30.30;97.50;;;;;;5030029;28;20017;-55
2023/08/23 09:24:45;;;;;;;2.08;0.80;;;30.00;97.00;;;;;;5030591;28;20030;-54
2023/08/23 09:27:11;;;;;;;1.95;0.60;;;27.80;95.70;;;;;;5030207;28;20487;-54
2023/08/23 09:29:38;;;;;;;1.98;0.70;;;29.10;96.20;;;;;;5025476;28;20034;-47
2023/08/23 09:32:07;;;;;;;3.20;0.60;;;27.80;97.10;;;;;;5028094;28;20021;-54
2023/08/23 09:34:32;;;;;;;;;;;28.60;97.40;;;;;;5029631;28;20025;-52
2023/08/23 09:37:05;;;;;;;0.82;0.60;;;28.20;97.00;;;;;;5029362;28;20004;-53
2023/08/23 09:39:31;;;;;;;1.90;0.63;;;27.70;98.00;;;;;;5028407;28;20026;-47
2023/08/23 09:42:03;;;;;;;1.73;0.90;;;29.00;99.00;;;;;;5027342;28;20022;-58
2023/08/23 09:44:41;;;;;;;2.10;0.80;;;26.90;96.30;;;;;;5023881;28;20053;-55
2023/08/23 09:47:15;;;;;;;1.67;0.77;;;30.70;98.70;;;;;;5028367;28;20017;-51
2023/08/23 09:49:43;;;;;;;0.93;0.60;;;30.00;96.60;;;;;;5029516;28;20033;-48
2023/08/23 09:52:10;;;;;;;1.30;0.57;;;30.00;96.30;;;;;;5028525;28;20105;-53
2023/08/23 09:54:39;;;;;;;1.10;0.60;;;30.20;95.50;;;;;;5030736;28;20025;-48
2023/08/23 09:57:05;;;;;;;1.85;0.75;;;29.00;95.30;;;;;;5033974;28;20452;-58
2023/08/23 09:59:32;;;;;;;1.38;0.52;;;30.20;96.00;;;;;;5033994;28;20105;-46
2023/08/23 10:01:59;;;;;;;1.23;0.73;;;29.90;95.00;;;;;;5033654;28;20100;-44
2023/08/23 10:04:26;;;;;;;3.22;0.77;;;30.70;96.40;;;;;;5033984;28;20088;-49
2023/08/23 10:06:52;;;;;;;2.60;0.90;;;30.80;96.20;;;;;;5033392;28;20026;-46
2023/08/23 10:09:20;;;;;;;0.75;0.45;;;30.80;95.30;;;;;;5033234;28;20068;-50
2023/08/23 10:11:47;;;;;;;2.03;0.70;;;30.80;94.70;;;;;;5032920;28;20052;-49
2023/08/23 10:14:14;;;;;;;2.65;0.90;;;29.70;93.70;;;;;;5032129;28;20038;-51
2023/08/23 10:16:40;;;;;;;2.28;0.90;;;30.50;96.00;;;;;;5031950;28;20085;-54
2023/08/23 10:19:07;;;;;;;2.50;0.80;;;30.40;96.20;;;;;;5032988;28;20060;-55
2023/08/23 10:21:32;;;;;;;1.63;0.73;;;30.90;94.70;;;;;;5033606;28;20316;-54
2023/08/23 10:24:03;;;;;;;2.30;0.90;;;30.80;94.10;;;;;;5032280;28;20556;-53
2023/08/23 10:26:29;;;;;;;2.10;0.90;;;31.00;96.30;;;;;;5032807;28;20185;-48
2023/08/23 10:28:55;;;;;;;1.67;0.90;;;30.80;93.70;;;;;;5031742;28;20112;-58
2023/08/23 10:31:28;;;;;;;1.05;0.57;;;30.80;94.10;;;;;;5031878;28;20045;-51
2023/08/23 10:33:55;;;;;;;1.77;0.98;;;30.40;94.50;;;;;;5032462;28;20037;-57
2023/08/23 10:36:25;;;;;;;1.80;0.73;;;31.60;94.50;;;;;;5029099;28;20075;-44
2023/08/23 10:38:56;;;;;;;2.35;1.08;;;30.90;93.90;;;;;;5031528;28;20079;-44
2023/08/23 10:41:24;;;;;;;0.98;0.70;;;29.90;94.60;;;;;;5030291;28;20137;-46
2023/08/23 10:43:51;;;;;;;3.28;1.42;;;30.20;93.80;;;;;;5030029;28;20028;-48
2023/08/23 10:46:21;;;;;;;2.67;1.27;;;31.10;94.70;;;;;;5030362;28;20108;-49
2023/08/23 10:48:47;;;;;;;5.93;4.43;;;;;;;;;;5023638;28;20423;-57
2023/08/23 10:51:14;;;;;;;1.27;0.75;;;29.90;94.70;;;;;;5029728;28;20487;-54
2023/08/23 10:53:41;;;;;;;4.38;1.00;;;30.60;93.90;;;;;;5029082;28;20377;-47
2023/08/23 10:56:07;;;;;;;1.00;0.80;;;30.90;94.70;;;;;;5031111;28;20091;-47
2023/08/23 10:58:33;;;;;;;1.08;0.85;;;31.00;95.00;;;;;;5032214;28;20117;-51
2023/08/23 11:00:59;;;;;;;1.88;0.80;;;30.60;94.90;;;;;;5031842;28;20037;-53
2023/08/23 11:03:28;;;;;;;4.10;0.90;;;30.80;94.30;;;;;;5031880;28;20079;-54
2023/08/23 11:05:54;;;;;;;3.20;1.00;;;31.20;95.40;;;;;;5031686;28;20028;-53
2023/08/23 11:08:21;;;;;;;2.38;0.98;;;31.00;92.90;;;;;;5032081;28;20030;-54
2023/08/23 11:10:47;;;;;;;1.50;0.95;;;31.60;92.90;;;;;;5032081;28;20051;-44
2023/08/23 11:13:13;;;;;;;2.03;0.90;;;31.60;92.60;;;;;;5031809;28;20052;-45
2023/08/23 11:15:40;;;;;;;1.88;0.90;;;30.80;93.30;;;;;;5032126;28;20021;-45
2023/08/23 11:18:06;;;;;;;1.55;0.88;;;31.00;93.40;;;;;;5032269;28;20060;-53
2023/08/23 11:20:32;;;;;;;4.38;0.98;;;31.70;93.50;;;;;;5032172;28;20488;-53
2023/08/23 11:22:57;;;;;;;3.50;1.08;;;30.90;90.70;;;;;;5028291;28;20033;-47
2023/08/23 11:25:23;;;;;;;1.52;0.77;;;31.60;92.00;;;;;;5031706;28;20032;-44
2023/08/23 11:27:50;;;;;;;2.05;0.80;;;30.80;92.50;;;;;;5032253;28;20478;-45
2023/08/23 11:30:16;;;;;;;2.85;1.00;;;;;;;;;;5026711;28;20017;-44
2023/08/23 11:32:43;;;;;;;1.65;0.90;;;30.10;92.40;;;;;;5031474;28;20083;-48
2023/08/23 11:35:10;;;;;;;0.68;0.63;;;30.50;93.30;;;;;;5031218;28;20040;-48
2023/08/23 11:37:36;;;;;;;1.00;0.70;;;29.80;92.50;;;;;;5030956;28;20037;-45
2023/08/23 11:40:07;;;;;;;1.98;0.95;;;30.50;93.20;;;;;;5030885;28;20032;-47
2023/08/23 11:42:36;;;;;;;2.65;0.88;;;30.40;93.40;;;;;;5031261;28;20068;-46
2023/08/23 11:45:06;;;;;;;2.30;0.90;;;30.40;94.20;;;;;;5028052;28;20022;-44
2023/08/23 11:47:34;;;;;;;2.05;0.80;;;30.30;94.20;;;;;;5031194;28;20049;-46
2023/08/23 11:50:01;;;;;;;2.70;1.17;;;30.70;95.00;;;;;;5030812;28;20416;-45
2023/08/23 11:52:30;;;;;;;2.22;0.98;;;30.00;92.60;;;;;;5031109;28;20045;-48
2023/08/23 11:54:56;;;;;;;3.20;1.00;;;30.00;93.20;;;;;;5030858;28;20021;-44
2023/08/23 11:57:22;;;;;;;3.05;1.00;;;;;;;;;;5031161;28;20124;-47
2023/08/23 11:59:48;;;;;;;2.25;0.90;;;30.00;93.10;;;;;;5031269;28;20018;-46
2023/08/23 12:02:14;;;;;;;3.60;1.10;;;27.70;92.90;;;;;;5031570;28;20074;-49
2023/08/23 12:04:41;;;;;;;2.20;1.02;;;28.50;93.30;;;;;;5029652;28;20452;-45
2023/08/23 12:07:07;;;;;;;1.90;1.08;;;31.30;93.70;;;;;;5031330;28;20060;-52
2023/08/23 12:09:32;;;;;;;3.00;0.98;;;27.50;92.10;;;;;;5031670;28;20419;-52
2023/08/23 12:11:59;;;;;;;1.52;0.90;;;30.00;92.80;;;;;;5031181;28;20068;-45
2023/08/23 12:14:28;;;;;;;3.00;1.20;;;29.90;93.00;;;;;;5031432;28;20041;-48
2023/08/23 12:16:54;;;;;;;;;;;29.90;93.60;;;;;;5030674;28;20025;-57
2023/08/23 12:19:20;;;;;;;3.67;1.13;;;30.00;93.30;;;;;;5029905;28;19905;-50
2023/08/23 12:21:45;;;;;;;3.28;1.13;;;29.90;92.70;;;;;;5031439;28;20036;-48
2023/08/23 12:24:11;;;;;;;5.10;1.08;;;30.30;92.30;;;;;;5031226;28;20096;-56
2023/08/23 12:26:37;;;;;;;2.13;0.90;;;31.20;93.70;;;;;;5029212;28;20482;-51
2023/08/23 12:29:03;;;;;;;0.90;0.73;;;29.60;93.20;;;;;;5027918;28;20037;-52
2023/08/23 12:31:29;;;;;;;4.82;1.25;;;;;;;;;;5028264;28;20056;-57
2023/08/23 12:33:55;;;;;;;1.98;1.05;;;28.90;93.60;;;;;;5028850;28;20036;-51
2023/08/23 12:36:20;;;;;;;1.83;0.90;;;29.20;93.50;;;;;;5029073;28;20026;-47
2023/08/23 12:38:46;;;;;;;3.45;1.05;;;;;;;;;;5028964;28;20095;-53
2023/08/23 12:41:13;;;;;;;2.95;1.08;;;30.90;94.20;;;;;;5030349;28;20025;-53
2023/08/23 12:43:39;;;;;;;3.13;1.00;;;30.10;93.50;;;;;;5031037;28;20160;-59
2023/08/23 12:46:05;;;;;;;2.28;0.90;;;29.50;94.10;;;;;;5029033;28;20097;-54
2023/08/23 12:48:31;;;;;;;2.47;1.00;;;29.90;94.50;;;;;;5028585;28;20037;-47
2023/08/23 12:50:56;;;;;;;1.85;1.10;;;30.00;93.80;;;;;;5028911;28;20168;-47
2023/08/23 12:53:22;;;;;;;2.70;1.08;;;;;;;;;;5028336;28;20045;-50